EDDHEBBR

Guest
Details From EDDH - Hamburg
To EBBR - Brussels Airport
Flight Number -
Tags generated
Created
Modified
Stats Distance 264 nm / 489 km
Max Altitude 30,400 ft / 9,266 m
Waypoints 6
Social Downloads 6
Likes 0
Share VATSIM

Download

Looking for another format? Having issues loading an existing format? Contact us
Advertisement - Login to hide

Notes

Basic altitude profile: - Ascent Rate: 2500ft/min - Ascent Speed: 250kts - Cruise Altitude: 18000ft - Cruise Speed: 280kts - Descent Rate: 1500ft/min - Descent Speed: 250kts Options: - Use NATs: yes - Use PACOTS: yes - Use low airways: yes - Use high airways: yes

Route

EDDH BASUM Y850 MEVEL L179 PABMO EBBR

ID Type Via Altitude Latitude Longitude Leg Dist Tot Dist Heading (true) Name
O EDDH APT - 0 ft / 0 m 53.63367˚ 9.98524˚ - 0 nm - Hamburg
BASUM FIX - 24,000 ft / 7,315 m 52.77194˚ 8.78861˚ 67 nm 67 nm 220° / 219° -
ARTER FIX Y850 (AWY-HI) 30,400 ft / 9,266 m 52.20000˚ 7.79778˚ 49 nm 117 nm 227° / 226° -
MEVEL FIX Y850 (AWY-HI) 24,000 ft / 7,315 m 51.85472˚ 7.20944˚ 30 nm 147 nm 227° / 226° -
PABMO FIX L179 (AWY-LO) 18,000 ft / 5,486 m 51.65167˚ 6.58972˚ 26 nm 173 nm 242° / 242° -
O EBBR APT - 0 ft / 0 m 50.89995˚ 4.49281˚ 90 nm 264 nm 241° / 239° Brussels Airport

Altitude Profile

Advertisement - Login to hide

Weather


0- 5 10 15 20 25 30 35+ Temperature / ° C

Clouds and Precipitation
Forecast for 2018-07-17 12:00 UTC. Updated 6 hours ago

Ground ~20,000 ft ~40,000 ft Winds

EDDH

Details ICAO EDDH (HAM)
Name Hamburg
Region Germany - Civil
Timezone Europe/Berlin (UTC+2.0)
Stats Elevation 53 ft / 16 m (AMSL)
Location 53.633665° 9.985235°
Runways 2
Magnetic Variation 2.869° E

METAR

EDDH 171520Z 29010KT 240V330 CAVOK 29/12 Q1012 NOSIG

Decode

TAF

TAF EDDH 171100Z 1712/1818 31010KT 9999 FEW045 BECMG 1720/1722 30005KT BECMG 1809/1811 30012KT

Decode

Departure Runways

ID Width Length Bearing (true) Bearing (mag) Surface Threshold Offset Overrun Length
05 151 ft / 46 m 10,647 ft / 3,245 m 50.18° 47.31° Asphalt 978 ft / 298 m 194 ft / 59 m
15 151 ft / 46 m 12,013 ft / 3,662 m 152.89° 150.02° Asphalt 0 ft / 0 m 194 ft / 59 m
23 151 ft / 46 m 10,647 ft / 3,245 m 230.22° 227.35° Asphalt 509 ft / 155 m 240 ft / 73 m
33 151 ft / 46 m 12,013 ft / 3,662 m 332.91° 330.04° Asphalt 1,463 ft / 446 m 164 ft / 50 m

EBBR

Details ICAO EBBR (BRU)
Name Brussels Airport
Region Belgium
Timezone Europe/Brussels (UTC+2.0)
Stats Elevation 184 ft / 56 m (AMSL)
Location 50.899948° 4.492814°
Runways 3
Magnetic Variation 1.204° E

METAR

EBBR 171520Z 26010KT 230V290 CAVOK 25/09 Q1016 NOSIG

Decode

TAF

TAF EBBR 171100Z 1712/1818 29006KT CAVOK= TAF AMD KRND 171125Z 1711/1815 20006KT 9999 BKN012 QNH3003INS TEMPO 1711/1715 SCT012 BECMG 1714/1715 20009KT 9999 SCT020 QNH3006INS BECMG 1717/1718 19010G15KT 9999 SKC QNH2993INS BECMG 1803/1804 17009KT 9999 SKC QNH2998INS TX38/1721Z TN23/1711Z

Decode

Destination Runways

ID Width Length Bearing (true) Bearing (mag) Surface Threshold Offset Overrun Length
02 164 ft / 50 m 9,896 ft / 3,016 m 14.41° 13.21° Asphalt 249 ft / 76 m 0 ft / 0 m
07L 148 ft / 45 m 12,106 ft / 3,690 m 65.16° 63.96° Asphalt 801 ft / 244 m 0 ft / 0 m
07R 148 ft / 45 m 10,703 ft / 3,262 m 69.90° 68.70° Asphalt 499 ft / 152 m 0 ft / 0 m
20 164 ft / 50 m 9,896 ft / 3,016 m 194.42° 193.22° Asphalt 751 ft / 229 m 0 ft / 0 m
25L 148 ft / 45 m 10,703 ft / 3,262 m 249.93° 248.73° Asphalt 499 ft / 152 m 0 ft / 0 m
25R 148 ft / 45 m 12,106 ft / 3,690 m 245.20° 244.00° Asphalt 801 ft / 244 m 0 ft / 0 m

Approach Navaids

Runway Type Ident Frequency Range Bearing (true) Bearing (mag) Slope Elevation
02 Localiser IBX 109.90 MHz 18 nm / 33 km 14.41° 13.21° - 184 ft / 56 m (AMSL)
02 Glidescope IBX 109.90 MHz 10 nm / 19 km 14.41° 13.21° 3.00° 184 ft / 56 m (AMSL)
02 DME IBX 109.90 MHz 18 nm / 33 km - - - 184 ft / 56 m (AMSL)
20 Localiser IBM 111.15 MHz 18 nm / 33 km 194.48° 193.27° - 184 ft / 56 m (AMSL)
20 Glidescope IBM 111.15 MHz 10 nm / 19 km 194.41° 193.21° 3.00° 184 ft / 56 m (AMSL)
20 DME IBM 111.15 MHz 18 nm / 33 km - - - 184 ft / 56 m (AMSL)
25L Localiser IBL 110.35 MHz 18 nm / 33 km 249.89° 248.68° - 184 ft / 56 m (AMSL)
25L Glidescope IBL 110.35 MHz 10 nm / 19 km 249.91° 248.71° 3.00° 184 ft / 56 m (AMSL)
25R Localiser IBR 108.90 MHz 18 nm / 33 km 245.34° 244.13° - 184 ft / 56 m (AMSL)
25R Glidescope IBR 108.90 MHz 10 nm / 19 km 245.18° 243.98° 3.00° 184 ft / 56 m (AMSL)
25R DME IBR 108.90 MHz 18 nm / 33 km - - - 184 ft / 56 m (AMSL)

Popular Alternatives